Time;durP1;ratioP1;P1;durP2;ratioP2;P2;SDS_P1;SDS_P2;PMS_P1;PMS_P2;Temp;Humidity;BMP_temperature;BMP_pressure;BME280_temperature;BME280_humidity;BME280_pressure;Samples;Min_cycle;Max_cycle;Signal;HPM_P1;HPM_P2
2022/07/29 00:00:44;;;;;;;2.50;1.20;;;17.80;97.50;;;;;;5097351;28;20874;-68
2022/07/29 00:03:13;;;;;;;1.10;1.10;;;17.80;97.70;;;;;;5096981;28;20211;-69
2022/07/29 00:05:40;;;;;;;1.03;1.03;;;17.70;97.70;;;;;;5097156;28;20465;-68
2022/07/29 00:08:07;;;;;;;1.13;1.10;;;17.70;97.80;;;;;;5096871;28;20391;-68
2022/07/29 00:10:32;;;;;;;0.90;0.90;;;17.60;97.80;;;;;;5097364;28;20444;-68
2022/07/29 00:12:58;;;;;;;2.33;2.13;;;17.60;98.00;;;;;;5097091;28;20910;-69
2022/07/29 00:15:24;;;;;;;5.33;1.03;;;17.50;98.00;;;;;;5097210;28;20645;-68
2022/07/29 00:17:50;;;;;;;1.20;1.10;;;17.30;98.00;;;;;;5096766;28;20183;-68
2022/07/29 00:20:16;;;;;;;0.80;0.60;;;17.30;98.30;;;;;;5096941;28;20177;-68
2022/07/29 00:22:42;;;;;;;0.80;0.73;;;17.20;98.70;;;;;;5096812;28;20184;-68
2022/07/29 00:25:09;;;;;;;1.47;1.00;;;17.20;98.70;;;;;;5096746;28;20200;-68
2022/07/29 00:27:35;;;;;;;1.77;1.67;;;17.20;98.70;;;;;;5096338;28;20415;-68
2022/07/29 00:30:03;;;;;;;0.60;0.60;;;17.20;98.60;;;;;;5095584;28;20464;-68
2022/07/29 00:32:29;;;;;;;0.77;0.77;;;17.20;98.70;;;;;;5096206;28;20410;-68
2022/07/29 00:37:38;;;;;;;1.30;1.20;;;17.20;98.90;;;;;;5096761;28;20652;-69
2022/07/29 00:40:04;;;;;;;0.70;0.67;;;17.10;98.90;;;;;;5096612;28;20411;-68
2022/07/29 00:42:30;;;;;;;0.30;0.30;;;17.10;98.90;;;;;;5096375;28;20249;-68
2022/07/29 00:44:55;;;;;;;0.90;0.90;;;17.10;98.90;;;;;;5096284;28;20548;-68
2022/07/29 00:47:21;;;;;;;0.63;0.63;;;17.00;99.10;;;;;;5096457;28;20524;-68
2022/07/29 00:49:47;;;;;;;1.23;1.13;;;17.00;99.20;;;;;;5096262;28;20165;-69
2022/07/29 00:52:13;;;;;;;0.77;0.77;;;17.00;99.00;;;;;;5096411;28;20244;-68
2022/07/29 00:54:40;;;;;;;0.60;0.60;;;17.00;99.10;;;;;;5096132;28;20600;-68
2022/07/29 00:57:07;;;;;;;1.23;1.20;;;17.00;99.30;;;;;;5095952;28;20507;-69
2022/07/29 00:59:33;;;;;;;1.10;1.00;;;17.00;99.40;;;;;;5095966;28;20411;-68
2022/07/29 01:01:59;;;;;;;0.97;0.90;;;17.00;99.50;;;;;;5096138;28;20399;-68
2022/07/29 01:04:24;;;;;;;1.63;1.30;;;17.00;99.50;;;;;;5095848;28;20205;-69
2022/07/29 01:06:51;;;;;;;1.33;1.23;;;16.90;99.50;;;;;;5096192;28;20187;-68
2022/07/29 01:09:18;;;;;;;0.60;0.60;;;16.90;99.50;;;;;;5095767;28;20407;-68
2022/07/29 01:11:46;;;;;;;1.23;0.97;;;16.90;99.60;;;;;;5095925;28;20886;-68
2022/07/29 01:14:12;;;;;;;1.80;1.70;;;16.90;99.50;;;;;;5095844;28;20797;-68
2022/07/29 01:17:02;;;;;;;0.90;0.90;;;17.00;99.30;;;;;;5095908;28;20411;-68
2022/07/29 01:20:06;;;;;;;0.70;0.70;;;16.90;99.40;;;;;;5095832;28;20791;-69
2022/07/29 01:22:35;;;;;;;2.63;0.93;;;16.90;99.70;;;;;;5061512;28;20532;-68
2022/07/29 01:25:28;;;;;;;1.40;1.30;;;16.90;99.90;;;;;;5095533;28;20481;-68
2022/07/29 01:27:59;;;;;;;1.40;1.10;;;16.90;99.90;;;;;;5095575;28;20396;-68
2022/07/29 01:30:26;;;;;;;1.33;1.23;;;17.00;99.90;;;;;;5095770;28;20411;-68
2022/07/29 01:32:58;;;;;;;0.90;0.90;;;17.00;99.90;;;;;;5095438;28;20467;-68
2022/07/29 01:35:28;;;;;;;0.60;0.60;;;17.10;99.80;;;;;;5095498;28;20890;-69
2022/07/29 01:38:00;;;;;;;1.53;1.43;;;17.10;99.70;;;;;;5095367;28;20545;-68
2022/07/29 01:40:32;;;;;;;1.70;1.60;;;17.10;99.70;;;;;;5077464;28;20411;-68
2022/07/29 01:43:03;;;;;;;1.07;1.07;;;17.20;99.80;;;;;;5095666;28;20395;-69
2022/07/29 01:45:52;;;;;;;1.00;1.00;;;17.30;99.80;;;;;;5095395;28;20972;-68
2022/07/29 01:48:23;;;;;;;0.70;0.70;;;17.30;99.60;;;;;;5095266;28;20866;-68
2022/07/29 01:50:53;;;;;;;1.07;1.07;;;17.30;99.40;;;;;;5095355;28;20406;-68
2022/07/29 01:53:34;;;;;;;1.17;1.17;;;17.30;99.70;;;;;;5095452;28;20415;-69
2022/07/29 01:56:01;;;;;;;0.93;0.93;;;17.40;99.90;;;;;;5095222;28;20445;-67
2022/07/29 01:58:29;;;;;;;0.80;0.80;;;17.40;99.80;;;;;;5094866;28;20434;-68
2022/07/29 02:00:57;;;;;;;0.70;0.70;;;17.50;99.90;;;;;;5095043;28;20440;-68
2022/07/29 02:03:23;;;;;;;1.30;0.90;;;17.50;99.90;;;;;;5094755;28;20443;-68
2022/07/29 02:05:50;;;;;;;0.80;0.80;;;17.60;99.90;;;;;;5094845;28;20883;-67
2022/07/29 02:08:18;;;;;;;1.67;1.30;;;17.50;99.80;;;;;;5093898;28;20494;-67
2022/07/29 02:10:45;;;;;;;1.00;1.00;;;17.50;99.90;;;;;;5094826;28;20403;-69
2022/07/29 02:13:13;;;;;;;0.60;0.60;;;17.60;99.90;;;;;;5094826;28;20422;-68
2022/07/29 02:15:42;;;;;;;1.83;1.73;;;17.50;99.90;;;;;;5094748;28;20419;-68
2022/07/29 02:18:12;;;;;;;1.20;1.20;;;17.50;99.90;;;;;;5094479;28;20464;-67
2022/07/29 02:20:40;;;;;;;1.20;1.17;;;17.60;99.90;;;;;;5094670;28;20825;-68
2022/07/29 02:23:10;;;;;;;1.73;1.30;;;17.60;99.90;;;;;;5076404;28;20496;-68
2022/07/29 02:25:37;;;;;;;1.30;1.23;;;17.50;99.90;;;;;;5094437;28;20493;-69
2022/07/29 02:28:05;;;;;;;0.60;0.60;;;17.50;99.90;;;;;;5094570;28;20495;-69
2022/07/29 02:30:31;;;;;;;0.90;0.90;;;17.50;99.90;;;;;;5094603;28;20403;-68
2022/07/29 02:32:58;;;;;;;0.70;0.70;;;17.40;99.90;;;;;;5094731;28;20800;-68
2022/07/29 02:35:24;;;;;;;1.90;1.03;;;17.40;99.90;;;;;;5094302;28;20411;-69
2022/07/29 02:40:39;;;;;;;0.60;0.60;;;17.40;99.90;;;;;;5094465;28;20398;-69
2022/07/29 02:43:07;;;;;;;0.90;0.90;;;17.50;99.90;;;;;;5094277;28;20435;-68
2022/07/29 02:45:36;;;;;;;1.10;1.00;;;17.50;99.90;;;;;;5094297;28;20454;-68
2022/07/29 02:48:07;;;;;;;1.20;0.70;;;17.50;99.90;;;;;;5093945;28;20455;-68
2022/07/29 02:50:37;;;;;;;0.90;0.80;;;17.50;99.90;;;;;;5094232;28;20403;-69
2022/07/29 02:53:23;;;;;;;1.37;1.23;;;17.50;99.90;;;;;;5094206;28;20476;-68
2022/07/29 02:55:55;;;;;;;0.90;0.77;;;17.40;99.90;;;;;;5094492;28;20402;-68
2022/07/29 02:58:37;;;;;;;2.00;1.00;;;17.30;99.90;;;;;;5093994;28;20442;-68
2022/07/29 03:01:16;;;;;;;1.80;1.70;;;17.30;99.90;;;;;;5094008;28;20964;-69
2022/07/29 03:03:44;;;;;;;1.20;1.10;;;17.20;99.90;;;;;;5093772;28;20582;-68
2022/07/29 03:06:13;;;;;;;1.27;1.17;;;17.10;99.90;;;;;;5093803;28;20422;-68
2022/07/29 03:08:39;;;;;;;1.17;1.17;;;17.00;99.90;;;;;;5093649;28;20494;-67
2022/07/29 03:11:07;;;;;;;0.67;0.67;;;17.00;99.90;;;;;;5093724;28;20407;-68
2022/07/29 03:13:33;;;;;;;0.50;0.50;;;17.00;99.90;;;;;;5093671;28;20426;-68
2022/07/29 03:15:59;;;;;;;0.70;0.70;;;17.00;99.90;;;;;;5093727;28;20411;-68
2022/07/29 03:18:25;;;;;;;0.90;0.90;;;17.00;99.90;;;;;;5093593;28;20475;-69
2022/07/29 03:20:51;;;;;;;2.53;1.23;;;17.00;99.90;;;;;;5093914;28;20407;-69
2022/07/29 03:23:22;;;;;;;1.20;1.17;;;17.10;99.90;;;;;;5093332;28;20794;-68
2022/07/29 03:25:48;;;;;;;1.30;1.30;;;17.10;99.90;;;;;;5093603;28;20172;-68
2022/07/29 03:28:14;;;;;;;1.10;1.10;;;17.10;99.90;;;;;;5093422;28;20402;-68
2022/07/29 03:30:39;;;;;;;0.50;0.50;;;17.10;99.90;;;;;;5093485;28;20405;-68
2022/07/29 03:33:05;;;;;;;1.50;1.10;;;17.00;99.90;;;;;;5093658;28;20188;-67
2022/07/29 03:35:31;;;;;;;1.10;1.10;;;17.00;99.90;;;;;;5093524;28;20184;-68
2022/07/29 03:37:57;;;;;;;1.27;1.10;;;17.00;99.90;;;;;;5093359;28;20176;-68
2022/07/29 03:40:35;;;;;;;1.60;1.37;;;16.90;99.90;;;;;;5093518;28;20513;-69
2022/07/29 03:43:03;;;;;;;1.43;1.17;;;17.00;99.90;;;;;;5093534;28;20426;-68
2022/07/29 03:45:30;;;;;;;1.33;1.23;;;16.90;99.90;;;;;;5093290;28;20454;-68
2022/07/29 03:48:02;;;;;;;1.03;0.93;;;16.90;99.90;;;;;;5093196;28;20388;-68
2022/07/29 03:50:29;;;;;;;0.40;0.40;;;17.00;99.90;;;;;;5093581;28;20397;-68
2022/07/29 03:52:56;;;;;;;1.33;1.23;;;17.00;99.90;;;;;;5075532;28;20457;-67
2022/07/29 03:55:22;;;;;;;1.83;1.73;;;17.00;99.90;;;;;;5093336;28;20410;-67
2022/07/29 03:57:49;;;;;;;1.60;1.50;;;17.00;99.90;;;;;;5093332;28;20411;-68
2022/07/29 04:00:15;;;;;;;0.83;0.83;;;17.00;99.90;;;;;;5093413;28;20472;-68
2022/07/29 04:02:46;;;;;;;1.00;1.00;;;17.00;99.90;;;;;;5093060;28;20798;-68
2022/07/29 04:05:13;;;;;;;0.70;0.70;;;17.00;99.90;;;;;;5093375;28;20442;-69
2022/07/29 04:07:38;;;;;;;1.23;1.17;;;17.10;99.90;;;;;;5093059;28;20434;-68
2022/07/29 04:10:04;;;;;;;1.27;1.17;;;17.10;99.90;;;;;;5093351;28;20411;-68
2022/07/29 04:12:30;;;;;;;0.70;0.70;;;17.10;99.90;;;;;;5093327;28;20177;-68
2022/07/29 04:14:56;;;;;;;0.97;0.87;;;17.20;99.90;;;;;;5093031;28;20431;-69
2022/07/29 04:17:21;;;;;;;1.63;1.53;;;17.20;99.90;;;;;;5093187;28;20172;-68
2022/07/29 04:19:47;;;;;;;0.60;0.60;;;17.30;99.90;;;;;;5093046;28;20180;-68
2022/07/29 04:22:12;;;;;;;1.10;1.07;;;17.40;99.90;;;;;;5093220;28;20172;-68
2022/07/29 04:24:38;;;;;;;0.70;0.70;;;17.40;99.90;;;;;;5092946;28;20664;-67
2022/07/29 04:27:04;;;;;;;1.00;0.97;;;17.50;99.90;;;;;;5093216;28;20184;-68
2022/07/29 04:29:29;;;;;;;0.63;0.63;;;17.50;99.90;;;;;;5092811;28;20168;-68
2022/07/29 04:31:55;;;;;;;2.20;1.10;;;17.60;99.90;;;;;;5094695;28;20161;-68
2022/07/29 04:34:21;;;;;;;1.70;1.60;;;17.70;99.90;;;;;;5096642;28;20641;-68
2022/07/29 04:36:46;;;;;;;2.50;1.13;;;17.80;99.90;;;;;;5096648;28;20207;-69
2022/07/29 04:39:12;;;;;;;0.67;0.67;;;17.80;99.90;;;;;;5096581;28;20175;-67
2022/07/29 04:41:38;;;;;;;0.73;0.73;;;17.90;99.90;;;;;;5096688;28;20195;-68
2022/07/29 04:44:05;;;;;;;0.63;0.63;;;17.90;99.90;;;;;;5096506;28;20951;-69
2022/07/29 04:46:31;;;;;;;0.67;0.67;;;18.00;99.90;;;;;;5096458;28;20518;-69
2022/07/29 04:48:56;;;;;;;1.00;1.00;;;18.00;99.90;;;;;;5096291;28;20421;-68
2022/07/29 04:51:22;;;;;;;2.80;1.07;;;18.10;99.90;;;;;;5096515;28;20959;-68
2022/07/29 04:53:48;;;;;;;0.90;0.57;;;18.20;99.90;;;;;;5096426;28;20232;-68
2022/07/29 04:56:13;;;;;;;2.30;1.00;;;18.30;99.90;;;;;;5096223;28;20215;-69
2022/07/29 04:58:39;;;;;;;0.47;0.47;;;18.40;99.90;;;;;;5096108;28;20251;-68
2022/07/29 05:01:05;;;;;;;0.90;0.90;;;18.60;99.90;;;;;;5096323;28;20594;-68
2022/07/29 05:03:30;;;;;;;0.77;0.60;;;18.70;99.90;;;;;;5096258;28;20208;-69
2022/07/29 05:05:56;;;;;;;1.17;0.70;;;18.80;99.90;;;;;;5096170;28;20177;-69
2022/07/29 05:08:21;;;;;;;0.67;0.67;;;19.00;99.90;;;;;;5095373;28;20169;-68
2022/07/29 05:10:47;;;;;;;0.63;0.63;;;19.10;99.90;;;;;;5096144;28;20222;-69
2022/07/29 05:13:13;;;;;;;0.70;0.70;;;19.10;99.90;;;;;;5095841;28;20715;-69
2022/07/29 05:15:39;;;;;;;0.60;0.60;;;19.20;99.80;;;;;;5095937;28;20569;-69
2022/07/29 05:18:05;;;;;;;1.03;1.00;;;19.20;99.50;;;;;;5095855;28;20184;-68
2022/07/29 05:20:31;;;;;;;0.77;0.77;;;19.20;99.20;;;;;;5095875;28;20185;-69
2022/07/29 05:23:02;;;;;;;1.27;1.17;;;19.20;99.10;;;;;;5077531;28;20815;-68
2022/07/29 05:25:29;;;;;;;1.27;1.17;;;19.20;99.00;;;;;;5095556;28;20448;-69
2022/07/29 05:27:55;;;;;;;1.20;1.20;;;19.20;98.90;;;;;;5095209;28;20408;-67
2022/07/29 05:30:21;;;;;;;0.50;0.50;;;19.20;98.60;;;;;;5077656;28;20404;-69
2022/07/29 05:32:47;;;;;;;1.00;0.90;;;19.30;98.70;;;;;;5095665;28;20494;-68
2022/07/29 05:35:13;;;;;;;0.70;0.70;;;19.30;98.80;;;;;;5094804;28;20509;-69
2022/07/29 05:37:39;;;;;;;0.60;0.60;;;19.40;99.00;;;;;;5094136;28;20459;-69
2022/07/29 05:40:05;;;;;;;0.37;0.37;;;19.40;98.70;;;;;;5076719;28;20424;-68
2022/07/29 05:42:31;;;;;;;0.50;0.50;;;19.40;98.50;;;;;;5093773;28;20832;-69
2022/07/29 05:44:57;;;;;;;0.70;0.70;;;19.50;98.80;;;;;;5092608;28;20469;-68
2022/07/29 05:47:24;;;;;;;0.60;0.60;;;19.50;98.60;;;;;;5092528;28;20262;-69
2022/07/29 05:49:50;;;;;;;1.07;1.07;;;19.80;98.70;;;;;;5092613;28;20509;-68
2022/07/29 05:52:16;;;;;;;0.50;0.50;;;20.10;98.30;;;;;;5093287;28;20409;-68
2022/07/29 05:54:42;;;;;;;0.60;0.60;;;20.50;96.80;;;;;;5092803;28;20470;-69
2022/07/29 05:57:08;;;;;;;0.70;0.70;;;20.80;95.60;;;;;;5093452;28;20229;-68
2022/07/29 05:59:37;;;;;;;0.70;0.70;;;21.00;95.10;;;;;;5093574;28;20182;-68
2022/07/29 06:02:04;;;;;;;1.03;0.90;;;21.20;94.70;;;;;;5095069;28;20177;-68
2022/07/29 06:04:31;;;;;;;0.63;0.63;;;21.20;94.70;;;;;;5094760;28;20985;-68
2022/07/29 06:06:57;;;;;;;0.80;0.80;;;21.20;94.70;;;;;;5095054;28;20407;-69
2022/07/29 06:09:22;;;;;;;0.73;0.50;;;21.20;94.80;;;;;;5094671;28;20501;-68
2022/07/29 06:11:48;;;;;;;0.70;0.70;;;21.20;94.80;;;;;;5094823;28;20240;-68
2022/07/29 06:14:14;;;;;;;1.07;1.07;;;21.20;95.00;;;;;;5094725;28;20197;-68
2022/07/29 06:16:40;;;;;;;0.80;0.80;;;21.40;95.30;;;;;;5094815;28;20626;-68
2022/07/29 06:19:05;;;;;;;0.57;0.57;;;21.70;95.00;;;;;;5094567;28;20184;-68
2022/07/29 06:21:31;;;;;;;1.10;1.00;;;22.00;94.20;;;;;;5094910;28;20560;-68
2022/07/29 06:23:56;;;;;;;0.80;0.80;;;22.10;93.50;;;;;;5094510;28;20211;-68
2022/07/29 06:26:22;;;;;;;0.67;0.67;;;22.20;93.00;;;;;;5094569;28;20170;-68
2022/07/29 06:28:48;;;;;;;1.00;0.97;;;22.10;92.80;;;;;;5094395;28;20171;-69
2022/07/29 06:31:14;;;;;;;0.70;0.60;;;21.90;93.10;;;;;;5094498;28;20413;-69
2022/07/29 06:33:39;;;;;;;1.17;1.17;;;21.80;93.60;;;;;;5094476;28;20458;-69
2022/07/29 06:36:05;;;;;;;0.50;0.50;;;21.70;94.00;;;;;;5094393;28;20169;-68
2022/07/29 06:38:33;;;;;;;1.83;1.73;;;21.70;94.40;;;;;;5094061;28;20174;-69
2022/07/29 06:41:02;;;;;;;1.10;1.03;;;21.70;94.50;;;;;;5094502;28;20404;-68
2022/07/29 06:43:35;;;;;;;0.80;0.80;;;21.70;94.50;;;;;;5094356;28;20425;-68
2022/07/29 06:46:06;;;;;;;0.80;0.80;;;21.80;95.10;;;;;;5094463;28;20397;-69
2022/07/29 06:48:33;;;;;;;1.13;0.93;;;21.90;94.60;;;;;;5094113;28;20916;-69
2022/07/29 06:50:58;;;;;;;0.47;0.47;;;22.40;94.60;;;;;;5094165;28;20813;-68
2022/07/29 06:53:25;;;;;;;1.00;1.00;;;22.90;93.70;;;;;;5093987;28;20475;-69
2022/07/29 06:55:50;;;;;;;0.50;0.50;;;23.40;93.20;;;;;;5093659;28;20402;-69
2022/07/29 06:58:17;;;;;;;0.70;0.70;;;23.70;92.70;;;;;;5093832;28;20412;-68
2022/07/29 07:00:44;;;;;;;0.67;0.67;;;24.20;91.80;;;;;;5094182;28;20165;-69
2022/07/29 07:03:10;;;;;;;0.80;0.80;;;24.70;90.90;;;;;;5093802;28;20469;-68
2022/07/29 07:05:36;;;;;;;0.90;0.67;;;25.10;88.80;;;;;;5093737;28;20882;-69
2022/07/29 07:08:02;;;;;;;0.50;0.50;;;25.40;88.30;;;;;;5093687;28;20460;-69
2022/07/29 07:10:29;;;;;;;0.70;0.70;;;25.40;85.80;;;;;;5093808;28;20182;-69
2022/07/29 07:12:54;;;;;;;1.17;0.80;;;25.10;84.90;;;;;;5093685;28;20429;-68
2022/07/29 07:15:23;;;;;;;0.40;0.40;;;24.90;85.80;;;;;;5093909;28;20410;-68
2022/07/29 07:17:49;;;;;;;0.93;0.93;;;24.60;86.60;;;;;;5093657;28;20184;-69
2022/07/29 07:20:16;;;;;;;0.87;0.80;;;24.10;87.70;;;;;;5093824;28;20421;-68
2022/07/29 07:22:42;;;;;;;1.37;1.07;;;23.70;88.70;;;;;;5093555;28;20501;-68
2022/07/29 07:25:08;;;;;;;0.70;0.70;;;23.30;90.70;;;;;;5093723;28;20572;-69
2022/07/29 07:27:34;;;;;;;0.50;0.50;;;23.10;91.10;;;;;;5093688;28;20655;-68
2022/07/29 07:30:01;;;;;;;1.33;0.80;;;22.90;91.60;;;;;;5093688;28;20413;-69
2022/07/29 07:32:27;;;;;;;0.97;0.67;;;22.70;93.00;;;;;;5093688;28;20168;-68
2022/07/29 07:34:52;;;;;;;0.93;0.73;;;22.50;93.10;;;;;;5093600;28;20936;-68
2022/07/29 07:37:20;;;;;;;0.80;0.80;;;22.40;93.70;;;;;;5093532;28;20212;-68
2022/07/29 07:39:46;;;;;;;0.97;0.70;;;22.40;94.10;;;;;;5093254;28;20629;-68
2022/07/29 07:42:12;;;;;;;1.17;1.13;;;22.30;94.70;;;;;;5093678;28;20410;-69
2022/07/29 07:44:39;;;;;;;0.57;0.57;;;22.30;95.00;;;;;;5091945;28;20464;-68
2022/07/29 07:47:05;;;;;;;0.70;0.67;;;22.10;92.60;;;;;;5093543;28;20400;-68
2022/07/29 07:49:31;;;;;;;0.90;0.90;;;22.00;92.30;;;;;;5092483;28;20399;-69
2022/07/29 07:51:56;;;;;;;0.90;0.90;;;21.80;93.00;;;;;;5093489;28;20935;-70
2022/07/29 07:54:22;;;;;;;0.70;0.67;;;21.60;93.10;;;;;;5092630;28;20197;-69
2022/07/29 07:56:50;;;;;;;0.73;0.73;;;21.30;93.10;;;;;;5093104;28;20180;-69
2022/07/29 07:59:16;;;;;;;0.60;0.50;;;21.00;94.00;;;;;;5092062;28;20172;-69
2022/07/29 08:01:42;;;;;;;0.80;0.80;;;20.70;94.70;;;;;;5092710;28;20774;-68
2022/07/29 08:04:08;;;;;;;0.80;0.80;;;20.50;95.60;;;;;;5092416;28;21166;-69
2022/07/29 08:06:35;;;;;;;1.87;1.13;;;20.40;96.00;;;;;;5093660;28;20183;-69
2022/07/29 08:09:02;;;;;;;1.10;1.00;;;20.20;94.40;;;;;;5096454;28;20456;-69
2022/07/29 08:11:28;;;;;;;0.93;0.93;;;20.40;95.80;;;;;;5097350;28;20823;-68
2022/07/29 08:13:54;;;;;;;0.40;0.40;;;20.60;96.00;;;;;;5096881;28;20831;-69
2022/07/29 08:16:20;;;;;;;0.80;0.80;;;20.80;96.10;;;;;;5096827;28;20402;-69
2022/07/29 08:18:46;;;;;;;0.60;0.60;;;20.80;96.80;;;;;;5096926;28;20422;-69
2022/07/29 08:21:13;;;;;;;0.60;0.60;;;20.80;96.50;;;;;;5097007;28;20175;-69
2022/07/29 08:23:44;;;;;;;0.53;0.53;;;20.90;97.10;;;;;;5096863;28;20424;-69
2022/07/29 08:26:10;;;;;;;0.77;0.77;;;20.90;96.50;;;;;;5097004;28;20518;-69
2022/07/29 08:28:44;;;;;;;1.07;0.70;;;21.00;95.90;;;;;;5096771;28;20411;-69
2022/07/29 08:31:10;;;;;;;0.57;0.57;;;21.10;97.00;;;;;;5097233;28;20391;-69
2022/07/29 08:33:35;;;;;;;1.10;1.00;;;21.20;96.60;;;;;;5096630;28;20419;-70
2022/07/29 08:36:02;;;;;;;0.80;0.80;;;21.30;96.60;;;;;;5078579;28;20170;-69
2022/07/29 08:38:27;;;;;;;0.70;0.70;;;21.40;96.40;;;;;;5096482;28;20247;-69
2022/07/29 08:40:53;;;;;;;0.83;0.83;;;21.50;97.00;;;;;;5096755;28;20441;-69
2022/07/29 08:43:19;;;;;;;0.93;0.93;;;21.40;96.20;;;;;;5096584;28;20601;-68
2022/07/29 08:45:50;;;;;;;0.70;0.70;;;21.50;95.40;;;;;;5096341;28;20439;-69
2022/07/29 08:48:18;;;;;;;1.70;0.70;;;21.50;96.50;;;;;;5096501;28;20408;-69
2022/07/29 08:50:46;;;;;;;0.40;0.40;;;21.60;96.80;;;;;;5096576;28;20431;-68
2022/07/29 08:53:13;;;;;;;0.93;0.93;;;21.60;96.30;;;;;;5096414;28;20424;-69
2022/07/29 08:55:43;;;;;;;0.60;0.60;;;21.80;95.40;;;;;;5095934;28;20409;-68
2022/07/29 08:58:09;;;;;;;1.70;1.60;;;21.90;95.30;;;;;;5096646;28;20430;-69
2022/07/29 09:00:40;;;;;;;0.90;0.90;;;21.90;95.50;;;;;;5095471;28;20746;-68
2022/07/29 09:03:08;;;;;;;0.70;0.70;;;22.10;95.50;;;;;;5095155;28;20541;-69
2022/07/29 09:05:34;;;;;;;0.87;0.87;;;22.20;95.40;;;;;;5095971;28;20455;-69
2022/07/29 09:08:01;;;;;;;0.93;0.80;;;22.20;95.50;;;;;;5096059;28;20449;-70
2022/07/29 09:10:27;;;;;;;1.03;1.00;;;22.30;94.90;;;;;;5095318;28;20484;-69
2022/07/29 09:12:55;;;;;;;1.20;1.20;;;22.30;94.80;;;;;;5095363;28;20426;-69
2022/07/29 09:15:20;;;;;;;0.50;0.50;;;22.40;94.80;;;;;;5095240;28;20745;-69
2022/07/29 09:17:49;;;;;;;0.60;0.60;;;22.50;93.80;;;;;;5094706;28;20493;-70
2022/07/29 09:20:22;;;;;;;1.60;0.90;;;22.60;94.20;;;;;;5096107;28;20174;-69
2022/07/29 09:22:50;;;;;;;0.97;0.70;;;22.80;93.70;;;;;;5095513;28;20420;-69
2022/07/29 09:25:36;;;;;;;0.80;0.67;;;22.90;93.70;;;;;;5095191;28;20453;-68
2022/07/29 09:28:19;;;;;;;1.23;0.97;;;23.10;92.00;;;;;;5095403;28;20414;-68
2022/07/29 09:30:59;;;;;;;0.97;0.90;;;23.50;91.70;;;;;;5095958;28;20438;-68
2022/07/29 09:33:34;;;;;;;0.40;0.40;;;23.90;91.90;;;;;;5077878;28;20437;-69
2022/07/29 09:36:11;;;;;;;0.90;0.63;;;24.40;90.10;;;;;;5077506;28;20426;-68
2022/07/29 09:38:42;;;;;;;0.80;0.80;;;24.90;89.20;;;;;;5095416;28;20386;-68
2022/07/29 09:41:10;;;;;;;0.80;0.80;;;25.30;89.30;;;;;;5077536;28;20399;-68
2022/07/29 09:43:38;;;;;;;0.60;0.53;;;25.90;87.30;;;;;;5077198;28;20993;-68
2022/07/29 09:46:14;;;;;;;0.80;0.67;;;26.80;81.10;;;;;;5095986;28;20468;-69
2022/07/29 09:48:40;;;;;;;1.10;1.00;;;27.70;75.50;;;;;;5077261;28;20414;-68
2022/07/29 09:51:20;;;;;;;1.17;1.17;;;28.10;74.10;;;;;;5095239;28;20399;-69
2022/07/29 09:53:46;;;;;;;1.97;1.30;;;27.80;73.50;;;;;;5095758;28;20422;-69
2022/07/29 09:56:14;;;;;;;0.77;0.57;;;27.70;71.00;;;;;;5095614;28;20405;-69
2022/07/29 09:58:39;;;;;;;0.53;0.53;;;27.80;72.20;;;;;;5094758;28;20161;-69
2022/07/29 10:01:05;;;;;;;0.60;0.60;;;27.70;72.70;;;;;;5095186;28;20399;-69
2022/07/29 10:03:31;;;;;;;0.90;0.77;;;27.30;69.50;;;;;;5094780;28;20200;-69
2022/07/29 10:06:08;;;;;;;0.70;0.60;;;26.80;71.60;;;;;;5094983;28;20196;-68
2022/07/29 10:08:36;;;;;;;0.93;0.87;;;26.40;73.20;;;;;;5094810;28;20596;-69
2022/07/29 10:11:18;;;;;;;0.70;0.70;;;26.40;75.80;;;;;;5094991;28;20432;-68
2022/07/29 10:13:46;;;;;;;0.50;0.50;;;26.50;75.70;;;;;;5094514;28;20426;-68
2022/07/29 10:16:13;;;;;;;0.77;0.70;;;26.60;71.70;;;;;;5094851;28;20490;-68
2022/07/29 10:18:40;;;;;;;0.60;0.60;;;26.90;69.90;;;;;;5094457;28;20402;-69
2022/07/29 10:21:06;;;;;;;0.63;0.63;;;28.00;68.80;;;;;;5094839;28;20426;-69
2022/07/29 10:23:35;;;;;;;0.70;0.60;;;29.30;67.40;;;;;;5094657;28;20427;-70
2022/07/29 10:26:02;;;;;;;0.83;0.80;;;30.70;59.80;;;;;;5094536;28;20425;-69
2022/07/29 10:28:27;;;;;;;1.10;1.00;;;31.90;57.70;;;;;;5093860;28;20403;-69
2022/07/29 10:31:01;;;;;;;0.70;0.70;;;32.80;55.90;;;;;;5075066;28;20411;-70
2022/07/29 10:33:52;;;;;;;0.80;0.60;;;33.50;50.50;;;;;;5094681;28;20199;-69
2022/07/29 10:37:05;;;;;;;0.70;0.67;;;33.40;49.00;;;;;;5094624;28;20395;-70
2022/07/29 10:39:52;;;;;;;0.80;0.80;;;32.50;48.40;;;;;;5039351;28;20775;-70
2022/07/29 10:42:22;;;;;;;0.40;0.40;;;31.60;51.20;;;;;;5094449;28;20460;-69
2022/07/29 10:44:49;;;;;;;0.67;0.67;;;31.30;51.20;;;;;;5094197;28;20439;-69
2022/07/29 10:47:25;;;;;;;0.57;0.57;;;31.00;51.20;;;;;;5094255;28;20427;-69
2022/07/29 10:50:02;;;;;;;0.70;0.70;;;30.60;49.90;;;;;;5094077;28;20402;-68
2022/07/29 10:52:50;;;;;;;0.80;0.80;;;30.60;53.10;;;;;;5094063;28;20486;-69
2022/07/29 10:55:39;;;;;;;0.93;0.93;;;30.70;51.00;;;;;;5094213;28;20971;-70
2022/07/29 10:58:14;;;;;;;0.70;0.70;;;30.60;50.90;;;;;;5094003;28;20409;-69
2022/07/29 11:00:40;;;;;;;0.67;0.67;;;29.80;49.90;;;;;;5094076;28;20394;-69
2022/07/29 11:03:06;;;;;;;0.70;0.70;;;29.40;51.80;;;;;;5093666;28;20939;-69
2022/07/29 11:05:53;;;;;;;0.80;0.80;;;29.00;52.30;;;;;;5093810;28;20599;-69
2022/07/29 11:08:25;;;;;;;0.70;0.47;;;28.70;54.40;;;;;;5076124;28;20175;-69
2022/07/29 11:10:53;;;;;;;0.40;0.40;;;28.40;54.40;;;;;;5093953;28;20402;-69
2022/07/29 11:13:43;;;;;;;0.70;0.70;;;28.10;54.30;;;;;;5093801;28;20443;-68
2022/07/29 11:16:09;;;;;;;0.60;0.60;;;27.60;54.10;;;;;;5093767;28;20481;-69
2022/07/29 11:18:34;;;;;;;0.87;0.87;;;27.40;56.00;;;;;;5093615;28;20476;-69
2022/07/29 11:21:00;;;;;;;0.43;0.43;;;27.40;55.80;;;;;;5093676;28;20172;-68
2022/07/29 11:23:28;;;;;;;0.70;0.70;;;27.30;54.30;;;;;;5093246;28;20601;-69
2022/07/29 11:26:16;;;;;;;0.50;0.50;;;27.20;57.80;;;;;;5093538;28;20450;-69
2022/07/29 11:28:54;;;;;;;0.40;0.40;;;27.00;56.20;;;;;;5093816;28;20399;-69
2022/07/29 11:31:36;;;;;;;0.60;0.60;;;26.80;55.90;;;;;;5093997;28;20403;-70
2022/07/29 11:34:17;;;;;;;0.60;0.50;;;26.50;57.90;;;;;;5093691;28;20454;-69
2022/07/29 11:37:12;;;;;;;0.50;0.50;;;26.50;56.00;;;;;;5094080;28;20407;-69
2022/07/29 11:39:56;;;;;;;0.53;0.53;;;26.60;54.90;;;;;;5093746;28;20399;-68
2022/07/29 11:42:24;;;;;;;0.70;0.70;;;26.60;55.30;;;;;;5098383;28;20414;-68
2022/07/29 11:44:56;;;;;;;0.50;0.50;;;26.50;56.80;;;;;;5097641;28;20446;-69
2022/07/29 11:47:22;;;;;;;0.50;0.50;;;26.50;57.00;;;;;;5097581;28;20407;-68
2022/07/29 11:49:51;;;;;;;0.60;0.60;;;26.50;56.30;;;;;;5097702;28;20544;-68
2022/07/29 11:52:18;;;;;;;0.50;0.50;;;26.50;58.70;;;;;;5079812;28;20765;-69
2022/07/29 11:54:47;;;;;;;0.50;0.50;;;26.30;57.10;;;;;;5098046;28;20429;-68
2022/07/29 11:57:14;;;;;;;1.00;1.00;;;26.30;58.90;;;;;;5097990;28;20819;-69
2022/07/29 11:59:44;;;;;;;0.73;0.73;;;26.30;58.20;;;;;;5097273;28;20399;-68
2022/07/29 12:02:11;;;;;;;0.53;0.53;;;26.20;59.00;;;;;;5097784;28;20460;-68
2022/07/29 12:04:59;;;;;;;0.70;0.70;;;26.10;59.60;;;;;;5097389;28;20432;-69
2022/07/29 12:07:32;;;;;;;0.53;0.53;;;26.10;58.60;;;;;;5096662;28;20548;-68
2022/07/29 12:09:58;;;;;;;0.70;0.70;;;26.10;60.70;;;;;;5096979;28;20417;-69
2022/07/29 12:12:24;;;;;;;0.60;0.60;;;25.90;62.70;;;;;;5096785;28;20394;-69
2022/07/29 12:14:50;;;;;;;0.60;0.60;;;25.30;60.50;;;;;;5096667;28;20465;-69
2022/07/29 12:17:30;;;;;;;1.17;0.90;;;25.30;65.00;;;;;;5078358;28;20201;-69
2022/07/29 12:19:57;;;;;;;0.70;0.70;;;25.40;65.10;;;;;;5097063;28;20175;-69
2022/07/29 12:22:36;;;;;;;1.10;1.10;;;25.50;65.90;;;;;;5096822;28;20409;-69
2022/07/29 12:25:09;;;;;;;1.00;1.00;;;25.70;63.50;;;;;;5096620;28;20539;-69
2022/07/29 12:27:37;;;;;;;1.30;0.77;;;25.60;63.40;;;;;;5097175;28;20373;-69
2022/07/29 12:30:11;;;;;;;0.60;0.60;;;25.70;64.30;;;;;;5097326;28;20374;-69
2022/07/29 12:32:46;;;;;;;0.90;0.80;;;25.20;64.10;;;;;;5095750;28;20375;-69
2022/07/29 12:35:19;;;;;;;0.70;0.70;;;24.80;64.50;;;;;;5096645;28;20527;-68
2022/07/29 12:37:47;;;;;;;0.83;0.83;;;24.70;67.10;;;;;;5096449;28;20399;-69
2022/07/29 12:40:16;;;;;;;0.50;0.50;;;24.70;70.70;;;;;;5078281;28;20931;-68
2022/07/29 12:43:01;;;;;;;0.50;0.50;;;24.30;70.40;;;;;;5096513;28;20417;-69
2022/07/29 12:45:30;;;;;;;1.00;0.90;;;24.20;70.90;;;;;;5096862;28;20446;-69
2022/07/29 12:47:56;;;;;;;0.60;0.60;;;24.10;73.60;;;;;;5096433;28;20403;-68
2022/07/29 12:50:22;;;;;;;1.07;0.73;;;23.80;71.80;;;;;;5096541;28;20467;-69
2022/07/29 12:52:48;;;;;;;0.40;0.40;;;23.60;72.00;;;;;;5095726;28;20430;-68
2022/07/29 12:55:14;;;;;;;0.77;0.77;;;23.60;72.00;;;;;;5096290;28;20252;-69
2022/07/29 12:57:49;;;;;;;0.87;0.87;;;23.60;73.30;;;;;;5096320;28;20399;-69
2022/07/29 13:00:15;;;;;;;0.47;0.47;;;23.60;71.30;;;;;;5096253;28;20402;-69
2022/07/29 13:02:43;;;;;;;0.50;0.50;;;23.40;72.00;;;;;;5096085;28;20430;-69